createdAt,value
2022-10-28T00:02:23.828Z,2.38
2022-10-28T00:05:26.776Z,2.33
2022-10-28T00:08:29.552Z,1.92
2022-10-28T00:11:34.603Z,2.13
2022-10-28T00:14:36.951Z,2.40
2022-10-28T00:17:39.624Z,2.28
2022-10-28T00:20:41.980Z,2.22
2022-10-28T00:23:45.519Z,2.55
2022-10-28T00:26:47.570Z,2.17
2022-10-28T00:29:50.751Z,2.25
2022-10-28T00:32:53.353Z,2.40
2022-10-28T00:35:56.318Z,2.95
2022-10-28T00:38:59.606Z,2.30
2022-10-28T00:42:06.633Z,2.13
2022-10-28T00:45:09.862Z,2.35
2022-10-28T00:48:13.073Z,2.40
2022-10-28T00:51:16.336Z,2.42
2022-10-28T00:54:19.718Z,1.85
2022-10-28T00:57:28.180Z,2.35
2022-10-28T01:00:30.898Z,2.60
2022-10-28T01:03:33.373Z,2.30
2022-10-28T01:06:36.010Z,2.60
2022-10-28T01:09:40.293Z,2.38
2022-10-28T01:15:48.901Z,2.42
2022-10-28T01:19:03.274Z,2.30
2022-10-28T01:22:23.731Z,2.33
2022-10-28T01:26:04.167Z,2.40
2022-10-28T01:29:15.285Z,2.42
2022-10-28T01:32:50.165Z,2.70
2022-10-28T01:35:59.417Z,2.28
2022-10-28T01:39:14.324Z,2.20
2022-10-28T01:42:28.744Z,2.85
2022-10-28T01:45:36.101Z,2.60
2022-10-28T01:48:46.888Z,2.47
2022-10-28T01:51:55.569Z,3.20
2022-10-28T01:55:09.011Z,2.33
2022-10-28T01:58:16.158Z,2.22
2022-10-28T02:01:19.608Z,2.35
2022-10-28T02:04:22.340Z,2.35
2022-10-28T02:07:24.682Z,2.20
2022-10-28T02:10:35.358Z,2.38
2022-10-28T02:14:09.842Z,2.55
2022-10-28T02:17:49.621Z,2.25
2022-10-28T02:21:02.833Z,2.58
2022-10-28T02:24:19.991Z,2.13
2022-10-28T02:27:33.306Z,2.55
2022-10-28T02:30:54.241Z,2.10
2022-10-28T02:34:01.588Z,2.65
2022-10-28T02:37:11.592Z,2.28
2022-10-28T02:40:20.112Z,2.40
2022-10-28T02:43:25.251Z,2.20
2022-10-28T02:46:31.571Z,2.10
2022-10-28T02:49:37.835Z,2.20
2022-10-28T02:52:42.829Z,2.28
2022-10-28T02:55:49.603Z,2.22
2022-10-28T02:58:52.024Z,2.25
2022-10-28T03:01:54.953Z,2.50
2022-10-28T03:04:57.301Z,2.60
2022-10-28T03:07:59.812Z,2.50
2022-10-28T03:11:03.567Z,2.75
2022-10-28T03:14:07.893Z,2.50
2022-10-28T03:17:11.655Z,2.85
2022-10-28T03:20:14.363Z,2.63
2022-10-28T03:23:16.343Z,2.50
2022-10-28T03:26:18.726Z,2.03
2022-10-28T03:29:21.299Z,2.50
2022-10-28T03:32:23.885Z,2.20
2022-10-28T03:35:26.048Z,2.80
2022-10-28T03:38:28.441Z,2.30
2022-10-28T03:41:30.668Z,2.63
2022-10-28T03:44:32.928Z,2.80
2022-10-28T03:47:36.039Z,2.20
2022-10-28T03:50:38.670Z,2.53
2022-10-28T03:53:40.672Z,2.72
2022-10-28T03:56:43.362Z,2.58
2022-10-28T03:59:45.529Z,2.40
2022-10-28T04:02:52.633Z,2.47
2022-10-28T04:05:55.265Z,2.60
2022-10-28T04:08:57.779Z,2.58
2022-10-28T04:11:59.895Z,2.30
2022-10-28T04:15:02.607Z,2.45
2022-10-28T04:18:05.304Z,2.33
2022-10-28T04:21:07.808Z,2.28
2022-10-28T04:24:09.904Z,2.45
2022-10-28T04:27:12.905Z,2.30
2022-10-28T04:30:15.762Z,2.30
2022-10-28T04:33:18.926Z,2.53
2022-10-28T04:36:21.487Z,2.10
2022-10-28T04:39:24.368Z,2.30
2022-10-28T04:42:27.257Z,2.58
2022-10-28T04:45:29.922Z,2.60
2022-10-28T04:48:35.846Z,2.70
2022-10-28T04:51:38.724Z,2.33
2022-10-28T04:54:40.986Z,2.15
2022-10-28T04:57:43.433Z,2.47
2022-10-28T05:00:45.705Z,2.28
2022-10-28T05:03:48.370Z,2.50
2022-10-28T05:06:50.645Z,2.35
2022-10-28T05:09:53.236Z,2.42
2022-10-28T05:12:55.487Z,2.38
2022-10-28T05:15:57.980Z,2.65
2022-10-28T05:19:00.289Z,2.28
2022-10-28T05:22:02.890Z,2.28
2022-10-28T05:25:05.692Z,2.63
2022-10-28T05:28:08.484Z,2.35
2022-10-28T05:31:10.990Z,2.67
2022-10-28T05:34:13.358Z,2.80
2022-10-28T05:37:16.210Z,2.55
2022-10-28T05:40:18.684Z,2.20
2022-10-28T05:43:21.038Z,2.00
2022-10-28T05:46:23.644Z,2.70
2022-10-28T05:49:25.859Z,1.95
2022-10-28T05:52:28.109Z,2.63
2022-10-28T05:55:30.259Z,2.30
2022-10-28T05:58:32.618Z,2.50
2022-10-28T06:01:34.786Z,2.70
2022-10-28T06:04:37.401Z,2.50
2022-10-28T06:07:41.275Z,2.40
2022-10-28T06:10:50.286Z,2.45
2022-10-28T06:13:52.859Z,2.30
2022-10-28T06:16:55.865Z,2.17
2022-10-28T06:19:58.062Z,2.47
2022-10-28T06:23:00.994Z,1.98
2022-10-28T06:26:04.574Z,1.85
2022-10-28T06:29:09.759Z,2.40
2022-10-28T06:32:11.956Z,2.03
2022-10-28T06:35:14.534Z,2.38
2022-10-28T06:38:16.687Z,2.22
2022-10-28T06:41:20.171Z,2.03
2022-10-28T06:44:22.494Z,2.83
2022-10-28T06:47:26.842Z,1.98
2022-10-28T06:50:29.921Z,2.30
2022-10-28T06:53:32.502Z,2.20
2022-10-28T06:56:34.963Z,2.30
2022-10-28T06:59:37.803Z,2.10
2022-10-28T07:02:45.191Z,2.17
2022-10-28T07:05:50.231Z,2.30
2022-10-28T07:08:52.942Z,2.40
2022-10-28T07:11:56.507Z,2.50
2022-10-28T07:15:01.575Z,2.08
2022-10-28T07:18:04.156Z,2.10
2022-10-28T07:21:06.379Z,2.10
2022-10-28T07:24:09.232Z,2.03
2022-10-28T07:27:11.338Z,1.98
2022-10-28T07:30:13.913Z,2.47
2022-10-28T07:33:16.403Z,2.20
2022-10-28T07:36:18.812Z,1.70
2022-10-28T07:39:21.166Z,2.03
2022-10-28T07:42:24.271Z,2.33
2022-10-28T07:45:26.660Z,2.72
2022-10-28T07:48:29.167Z,2.20
2022-10-28T07:51:31.455Z,2.80
2022-10-28T07:54:34.359Z,2.67
2022-10-28T07:57:37.259Z,2.90
2022-10-28T08:00:39.990Z,2.38
2022-10-28T08:03:42.316Z,2.08
2022-10-28T08:06:44.662Z,2.22
2022-10-28T08:09:46.933Z,2.33
2022-10-28T08:12:49.579Z,2.88
2022-10-28T08:15:53.559Z,2.65
2022-10-28T08:18:57.212Z,2.38
2022-10-28T08:21:59.690Z,1.75
2022-10-28T08:25:01.979Z,2.30
2022-10-28T08:28:04.650Z,2.65
2022-10-28T08:31:10.506Z,2.20
2022-10-28T08:34:12.662Z,1.85
2022-10-28T08:37:16.412Z,1.85
2022-10-28T08:40:24.676Z,2.60
2022-10-28T08:43:57.268Z,2.20
2022-10-28T08:47:21.950Z,2.35
2022-10-28T08:50:27.929Z,2.38
2022-10-28T08:53:41.488Z,2.30
2022-10-28T08:56:47.586Z,2.47
2022-10-28T08:59:53.072Z,2.85
2022-10-28T09:03:06.738Z,2.22
2022-10-28T09:06:10.587Z,2.45
2022-10-28T09:09:19.756Z,2.00
2022-10-28T09:12:43.957Z,2.13
2022-10-28T09:16:21.886Z,2.13
2022-10-28T09:19:32.863Z,2.05
2022-10-28T09:22:56.092Z,1.90
2022-10-28T09:26:11.435Z,2.17
2022-10-28T09:29:43.317Z,2.42
2022-10-28T09:32:52.954Z,2.35
2022-10-28T09:35:57.251Z,1.67
2022-10-28T09:39:01.524Z,2.38
2022-10-28T09:42:10.112Z,2.17
2022-10-28T09:45:28.585Z,2.35
2022-10-28T09:48:42.145Z,2.65
2022-10-28T09:51:52.845Z,1.90
2022-10-28T09:54:57.044Z,1.88
2022-10-28T09:57:59.987Z,2.00
2022-10-28T10:01:05.164Z,2.08
2022-10-28T10:04:22.682Z,2.50
2022-10-28T10:07:57.042Z,2.35
2022-10-28T10:11:07.193Z,2.58
2022-10-28T10:14:15.768Z,2.40
2022-10-28T10:17:43.475Z,2.13
2022-10-28T10:21:01.556Z,2.22
2022-10-28T10:24:29.186Z,2.10
2022-10-28T10:27:32.469Z,2.05
2022-10-28T10:30:36.847Z,2.72
2022-10-28T10:33:41.143Z,2.10
2022-10-28T10:36:51.199Z,2.10
2022-10-28T10:40:11.175Z,2.00
2022-10-28T10:43:22.958Z,2.50
2022-10-28T10:46:25.180Z,2.13
2022-10-28T10:49:28.754Z,1.95
2022-10-28T10:52:31.556Z,2.20
2022-10-28T10:55:33.864Z,1.92
2022-10-28T11:01:43.172Z,2.75
2022-10-28T11:04:52.128Z,2.20
2022-10-28T11:07:54.621Z,2.60
2022-10-28T11:11:07.615Z,2.05
2022-10-28T11:14:10.535Z,2.20
2022-10-28T11:17:25.509Z,2.10
2022-10-28T11:24:07.209Z,1.60
2022-10-28T11:27:28.854Z,2.10
2022-10-28T11:30:45.244Z,2.00
2022-10-28T11:34:13.373Z,2.22
2022-10-28T11:37:38.919Z,2.30
2022-10-28T11:40:50.421Z,2.25
2022-10-28T11:43:57.681Z,2.25
2022-10-28T11:47:21.794Z,2.42
2022-10-28T11:50:43.223Z,2.03
2022-10-28T11:53:57.281Z,2.35
2022-10-28T11:57:12.823Z,3.45
2022-10-28T12:00:36.088Z,2.90
2022-10-28T12:04:32.963Z,2.22
2022-10-28T12:07:42.429Z,2.38
2022-10-28T12:11:10.496Z,1.90
2022-10-28T12:14:15.755Z,2.10
2022-10-28T12:17:52.716Z,2.08
2022-10-28T12:21:19.077Z,2.25
2022-10-28T12:24:25.001Z,2.25
2022-10-28T12:27:36.597Z,2.40
2022-10-28T12:30:43.462Z,2.25
2022-10-28T12:33:57.617Z,2.45
2022-10-28T12:37:14.467Z,2.30
2022-10-28T12:40:22.005Z,2.83
2022-10-28T12:43:40.716Z,2.58
2022-10-28T12:50:09.729Z,2.50
2022-10-28T12:53:36.221Z,1.90
2022-10-28T12:56:57.554Z,2.13
2022-10-28T13:00:20.626Z,1.98
2022-10-28T13:03:28.523Z,2.08
2022-10-28T13:06:49.682Z,2.40
2022-10-28T13:10:11.133Z,2.17
2022-10-28T13:13:45.874Z,2.25
2022-10-28T13:17:05.477Z,2.58
2022-10-28T13:20:18.274Z,2.22
2022-10-28T13:23:25.509Z,2.80
2022-10-28T13:26:37.078Z,2.33
2022-10-28T13:33:01.169Z,2.60
2022-10-28T13:36:27.000Z,2.35
2022-10-28T13:39:31.886Z,2.17
2022-10-28T13:42:47.714Z,2.50
2022-10-28T13:45:55.679Z,2.03
2022-10-28T13:49:26.733Z,2.47
2022-10-28T13:52:29.117Z,2.70
2022-10-28T13:59:06.661Z,2.40
2022-10-28T14:02:37.999Z,2.28
2022-10-28T14:05:40.370Z,2.50
2022-10-28T14:08:44.943Z,2.10
2022-10-28T14:15:06.495Z,2.10
2022-10-28T14:18:43.108Z,2.20
2022-10-28T14:22:03.328Z,2.47
2022-10-28T14:25:41.739Z,2.40
2022-10-28T14:28:54.400Z,2.72
2022-10-28T14:31:56.720Z,2.65
2022-10-28T14:35:03.568Z,2.30
2022-10-28T14:38:14.043Z,2.10
2022-10-28T14:41:16.702Z,2.33
2022-10-28T14:44:37.671Z,2.53
2022-10-28T14:48:03.381Z,2.25
2022-10-28T14:51:14.953Z,2.08
2022-10-28T14:54:29.993Z,2.58
2022-10-28T14:57:34.915Z,2.83
2022-10-28T15:00:42.425Z,2.78
2022-10-28T15:03:47.551Z,2.60
2022-10-28T15:06:52.073Z,2.90
2022-10-28T15:09:56.168Z,3.10
2022-10-28T15:13:00.233Z,2.47
2022-10-28T15:16:05.211Z,2.60
2022-10-28T15:19:34.081Z,2.50
2022-10-28T15:22:36.359Z,2.67
2022-10-28T15:25:38.875Z,2.03
2022-10-28T15:28:52.739Z,2.30
2022-10-28T15:32:07.336Z,2.55
2022-10-28T15:35:38.271Z,2.60
2022-10-28T15:38:43.801Z,2.42
2022-10-28T15:41:49.738Z,2.08
2022-10-28T15:45:03.276Z,2.15
2022-10-28T15:48:19.237Z,2.00
2022-10-28T15:51:21.811Z,2.55
2022-10-28T15:54:24.054Z,1.88
2022-10-28T15:57:31.955Z,2.17
2022-10-28T16:00:34.506Z,2.25
2022-10-28T16:03:40.227Z,1.88
2022-10-28T16:06:42.303Z,2.20
2022-10-28T16:09:48.416Z,1.92
2022-10-28T16:12:51.192Z,2.33
2022-10-28T16:15:58.342Z,2.33
2022-10-28T16:19:16.330Z,1.73
2022-10-28T16:22:36.027Z,2.22
2022-10-28T16:25:39.310Z,2.00
2022-10-28T16:28:45.786Z,2.10
2022-10-28T16:31:52.546Z,2.13
2022-10-28T16:34:58.127Z,1.95
2022-10-28T16:38:00.377Z,2.70
2022-10-28T16:41:04.698Z,2.28
2022-10-28T16:44:17.034Z,2.17
2022-10-28T16:47:21.105Z,2.30
2022-10-28T16:50:23.656Z,1.88
2022-10-28T16:53:26.576Z,2.05
2022-10-28T16:56:28.725Z,2.25
2022-10-28T16:59:31.506Z,2.00
2022-10-28T17:02:36.143Z,2.38
2022-10-28T17:05:38.999Z,2.03
2022-10-28T17:12:06.052Z,2.70
2022-10-28T17:15:08.863Z,1.95
2022-10-28T17:18:12.941Z,1.52
2022-10-28T17:21:14.970Z,2.00
2022-10-28T17:24:17.490Z,1.80
2022-10-28T17:27:25.345Z,2.30
2022-10-28T17:30:28.699Z,1.90
2022-10-28T17:33:31.041Z,2.00
2022-10-28T17:36:34.208Z,2.08
2022-10-28T17:39:36.570Z,1.85
2022-10-28T17:42:38.999Z,2.22
2022-10-28T17:45:41.337Z,2.20
2022-10-28T17:48:44.465Z,1.90
2022-10-28T17:51:46.530Z,2.10
2022-10-28T17:54:48.895Z,1.70
2022-10-28T17:57:51.174Z,2.08
2022-10-28T18:01:06.329Z,1.83
2022-10-28T18:04:09.008Z,1.90
2022-10-28T18:07:11.508Z,1.70
2022-10-28T18:10:14.266Z,1.50
2022-10-28T18:18:01.737Z,1.85
2022-10-28T18:21:04.574Z,1.67
2022-10-28T18:24:09.810Z,1.77
2022-10-28T18:31:41.180Z,1.45
2022-10-28T18:35:08.662Z,1.67
2022-10-28T18:38:10.765Z,1.83
2022-10-28T18:45:25.591Z,1.80
2022-10-28T18:48:29.156Z,1.40
2022-10-28T18:51:41.911Z,2.28
2022-10-28T18:55:09.639Z,1.55
2022-10-28T18:59:01.100Z,1.90
2022-10-28T19:02:35.425Z,1.98
2022-10-28T19:05:54.438Z,1.60
2022-10-28T19:08:58.298Z,2.10
2022-10-28T19:12:00.238Z,1.83
2022-10-28T19:15:03.855Z,1.30
2022-10-28T19:18:05.849Z,1.52
2022-10-28T19:21:12.860Z,1.67
2022-10-28T19:24:15.171Z,1.83
2022-10-28T19:27:17.829Z,1.90
2022-10-28T19:30:22.056Z,2.13
2022-10-28T19:33:24.995Z,1.77
2022-10-28T19:36:29.506Z,1.70
2022-10-28T19:39:31.972Z,1.70
2022-10-28T19:42:34.335Z,1.90
2022-10-28T19:45:38.257Z,1.45
2022-10-28T19:48:43.605Z,1.60
2022-10-28T19:51:46.228Z,1.52
2022-10-28T19:54:48.209Z,1.45
2022-10-28T19:57:52.897Z,2.55
2022-10-28T20:01:00.120Z,1.23
2022-10-28T20:04:04.279Z,1.52
2022-10-28T20:07:06.290Z,1.90
2022-10-28T20:10:09.476Z,1.65
2022-10-28T20:13:11.834Z,1.70
2022-10-28T20:16:14.798Z,2.00
2022-10-28T20:19:17.088Z,1.60
2022-10-28T20:22:19.735Z,2.28
2022-10-28T20:25:22.308Z,1.50
2022-10-28T20:28:30.050Z,1.75
2022-10-28T20:31:33.749Z,1.90
2022-10-28T20:34:36.653Z,2.33
2022-10-28T20:37:40.400Z,1.80
2022-10-28T20:40:46.561Z,2.00
2022-10-28T20:43:52.647Z,1.58
2022-10-28T20:46:55.833Z,1.38
2022-10-28T20:49:59.521Z,1.95
2022-10-28T20:53:03.079Z,1.40
2022-10-28T20:56:05.757Z,1.55
2022-10-28T20:59:08.463Z,1.55
2022-10-28T21:02:11.291Z,1.63
2022-10-28T21:05:13.959Z,2.20
2022-10-28T21:08:17.597Z,1.40
2022-10-28T21:11:20.787Z,1.65
2022-10-28T21:14:22.922Z,1.73
2022-10-28T21:17:25.629Z,1.45
2022-10-28T21:20:28.422Z,1.40
2022-10-28T21:23:56.691Z,1.73
2022-10-28T21:27:00.697Z,1.70
2022-10-28T21:30:04.086Z,1.55
2022-10-28T21:33:06.560Z,1.40
2022-10-28T21:36:16.961Z,1.20
2022-10-28T21:39:19.464Z,1.27
2022-10-28T21:42:21.771Z,1.45
2022-10-28T21:45:24.821Z,1.50
2022-10-28T21:48:30.291Z,1.65
2022-10-28T21:51:32.484Z,1.83
2022-10-28T21:54:35.432Z,1.38
2022-10-28T21:57:37.738Z,1.60
2022-10-28T22:00:40.490Z,1.55
2022-10-28T22:03:42.701Z,1.35
2022-10-28T22:06:53.590Z,1.52
2022-10-28T22:09:55.658Z,1.83
2022-10-28T22:12:58.088Z,1.60
2022-10-28T22:16:06.895Z,1.70
2022-10-28T22:19:12.966Z,1.30
2022-10-28T22:22:16.314Z,1.48
2022-10-28T22:25:18.808Z,1.63
2022-10-28T22:28:20.898Z,1.83
2022-10-28T22:31:25.837Z,1.58
2022-10-28T22:34:27.944Z,1.35
2022-10-28T22:37:30.289Z,1.35
2022-10-28T22:40:32.445Z,1.40
2022-10-28T22:43:35.318Z,1.20
2022-10-28T22:46:37.558Z,1.23
2022-10-28T22:49:41.034Z,1.77
2022-10-28T22:52:43.076Z,1.33
2022-10-28T22:55:46.628Z,1.58
2022-10-28T22:58:53.035Z,1.58
2022-10-28T23:01:55.531Z,1.60
2022-10-28T23:04:57.560Z,1.42
2022-10-28T23:08:00.417Z,1.30
2022-10-28T23:11:03.029Z,1.52
2022-10-28T23:14:05.347Z,1.30
2022-10-28T23:17:08.462Z,1.45
2022-10-28T23:20:11.248Z,1.50
2022-10-28T23:23:13.756Z,1.60
2022-10-28T23:26:16.260Z,1.52
2022-10-28T23:29:18.370Z,1.40
2022-10-28T23:32:21.348Z,1.20
2022-10-28T23:35:23.587Z,1.30
2022-10-28T23:38:27.308Z,1.48
2022-10-28T23:41:29.449Z,1.48
2022-10-28T23:44:32.073Z,1.75
2022-10-28T23:47:34.678Z,1.38
2022-10-28T23:50:37.503Z,1.13
2022-10-28T23:53:39.619Z,1.38
2022-10-28T23:56:42.532Z,1.70
2022-10-28T23:59:44.483Z,1.38
